• Join FlightAware (Why Join?)
  • Login
  • US Flag 
10:11PM EDT


 

Airport Tracker/Info


-or-


 

Live Flight TrackerFlight Track Log ✈ RAX289 ✈ 16-Aug-2013 ✈ KDEN - KBUF

Flight Track Log - Related Links

Times and Time Zones

All times are in EDT time to prevent confusion due to time zone crossing. See the RAX289 flight status page for this flight to view local times or setup timezone preferences in your user account.

Time Position Orientation Groundspeed Altitude Reporting Facility
EDT Latitude Longitude Course Direction KTS MPH feet Rate Location/Type
02:52PM 39.8833 -104.5667 72° East 201 231 6,600  Level Denver TRACON
02:53PM 39.9000 -104.5000 72° East 220 253 8,800 1,860 Climbing Denver TRACON
02:54PM 39.9000 -104.4000 90° East 241 277 10,400 1,200 Climbing Denver TRACON
02:55PM 39.9094 -104.3158 82° East 290 334 11,200 960 Climbing Denver Center
02:56PM 39.9317 -104.1831 78° East 348 400 12,300 1,620 Climbing Denver Center
02:57PM 39.9561 -104.0622 75° East 344 396 14,600 1,860 Climbing Denver Center
02:58PM 39.9906 -103.9306 71° East 364 419 16,200 1,560 Climbing Denver Center
02:59PM 40.0119 -103.7964 78° East 376 433 17,900 1,440 Climbing Denver Center
03:00PM 40.0300 -103.6692 79° East 376 433 19,200 1,260 Climbing Denver Center
03:01PM 40.0472 -103.5267 81° East 396 456 20,600 1,200 Climbing Denver Center
03:02PM 40.0856 -103.3564 74° East 410 472 21,800 1,080 Climbing Denver Center
03:03PM 40.1078 -103.2072 79° East 418 481 22,900 960 Climbing Denver Center
03:04PM 40.1328 -103.0578 78° East 423 487 23,900 780 Climbing Denver Center
03:05PM 40.1583 -102.9056 78° East 428 493 24,600 720 Climbing Denver Center
03:06PM 40.1792 -102.7500 80° East 434 499 25,400 780 Climbing Denver Center
03:07PM 40.2114 -102.5742 76° East 433 498 26,300 780 Climbing Denver Center
03:08PM 40.2339 -102.4256 79° East 435 501 27,100 780 Climbing Denver Center
03:09PM 40.2608 -102.2514 78° East 438 504 28,000 660 Climbing Denver Center
03:10PM 40.2781 -102.1008 81° East 437 503 28,500 540 Climbing Denver Center
03:11PM 40.3019 -101.9258 80° East 438 504 29,200 480 Climbing Denver Center
03:12PM 40.3325 -101.7769 75° East 442 509 29,600 480 Climbing Denver Center
03:13PM 40.3519 -101.5989 82° East 444 511 30,300 540 Climbing Denver Center
03:14PM 40.3761 -101.4483 78° East 442 509 30,800 480 Climbing Denver Center
03:15PM 40.4022 -101.2742 79° East 438 504 31,400 480 Climbing Denver Center
03:16PM 40.4242 -101.1231 79° East 442 509 31,900 420 Climbing Denver Center
03:17PM 40.4511 -100.9475 79° East 443 510 32,300 420 Climbing Denver Center
03:18PM 40.4744 -100.7964 78° East 445 512 32,800 300 Climbing Denver Center
03:20PM 40.5169 -100.6269 72° East 442 509 33,000 60 Climbing Denver Center
03:21PM 40.5508 -100.4803 73° East 444 511 33,000  Level Denver Center
03:22PM 40.5814 -100.3042 77° East 445 512 33,000  Level Denver Center
03:23PM 40.6172 -100.1567 72° East 445 512 33,000  Level Denver Center
03:24PM 40.6558 -99.9856 73° East 440 506 33,000  Level Denver Center
03:25PM 40.6842 -99.8358 76° East 446 513 33,000  Level Denver Center
03:26PM 40.6997 -99.6728 83° East 449 517 33,000  Level Denver Center
03:27PM 40.7242 -99.4769 81° East 452 520 33,000  Level Denver Center
03:28PM 40.7522 -99.3192 77° East 445 512 33,000  Level Denver Center
03:29PM 40.7700 -99.1592 82° East 443 510 33,000  Level Denver Center
03:30PM 40.7911 -98.9833 81° East 447 514 33,000  Level Denver Center
03:31PM 40.8153 -98.8297 78° East 447 514 33,000  Level Denver Center
03:32PM 40.8383 -98.6469 80° East 446 513 33,000  Level Denver Center
03:33PM 40.8628 -98.4881 78° East 446 513 33,000  Level Denver Center
03:34PM 40.8814 -98.2944 83° East 446 513 33,000  Level Minneapolis Center
03:35PM 40.9036 -98.1339 80° East 446 513 33,000  Level Minneapolis Center
03:36PM 40.9250 -97.9719 80° East 447 514 33,000  Level Minneapolis Center
03:37PM 40.9356 -97.8069 85° East 451 519 33,000  Level Minneapolis Center
03:38PM 40.9619 -97.6117 80° East 450 518 33,000 120 Level Minneapolis Center
03:39PM 40.9869 -97.4492 78° East 451 519 33,300 420 Climbing Minneapolis Center
03:40PM 41.0014 -97.2911 83° East 449 517 33,900 540 Climbing Minneapolis Center
03:41PM 41.0325 -97.1367 75° East 437 503 34,500 480 Climbing Minneapolis Center
03:42PM 41.0661 -96.9833 74° East 434 499 35,000 540 Climbing Minneapolis Center
03:44PM 41.1006 -96.7981 76° East 432 497 35,700 600 Climbing Minneapolis Center
03:45PM 41.1322 -96.6456 75° East 432 497 36,300 540 Climbing Minneapolis Center
03:46PM 41.1575 -96.4883 78° East 435 501 36,900 300 Climbing Minneapolis Center
03:47PM 41.1897 -96.3292 75° East 433 498 37,000  Climbing Minneapolis Center
03:48PM 41.2172 -96.1719 77° East 436 502 37,000  Level Minneapolis Center
03:49PM 41.2428 -96.0153 78° East 434 499 37,000  Level Minneapolis Center
03:50PM 41.2750 -95.8608 74° East 434 499 37,000  Level Minneapolis Center
03:51PM 41.3031 -95.6697 79° East 437 503 37,000  Level Minneapolis Center
03:52PM 41.3300 -95.5333 75° East 436 502 37,000  Level Minneapolis Center
03:53PM 41.3561 -95.3756 78° East 437 503 37,000  Level Minneapolis Center
03:54PM 41.3856 -95.1856 78° East 437 503 37,000  Level Minneapolis Center
03:55PM 41.4089 -95.0608 76° East 436 502 37,000  Level Minneapolis Center
03:56PM 41.4433 -94.8731 76° East 436 502 37,000  Level Minneapolis Center
03:57PM 41.4700 -94.7169 77° East 434 499 37,000  Level Minneapolis Center
03:58PM 41.4972 -94.5594 77° East 436 502 37,000  Level Minneapolis Center
03:59PM 41.5272 -94.4036 76° East 435 501 37,000  Level Minneapolis Center
04:00PM 41.5678 -94.2167 74° East 439 505 37,000  Level Minneapolis Center
04:01PM 41.5983 -94.0678 75° East 438 504 37,000  Level Minneapolis Center
04:02PM 41.6208 -93.9053 79° East 444 511 37,000  Level Minneapolis Center
04:03PM 41.6444 -93.7439 79° East 445 512 37,000  Level Minneapolis Center
04:04PM 41.6789 -93.5519 76° East 446 513 37,000  Level Minneapolis Center
04:05PM 41.7011 -93.3894 80° East 447 514 37,000  Level Minneapolis Center
04:06PM 41.7236 -93.2264 79° East 448 516 37,000  Level Minneapolis Center
04:07PM 41.7489 -93.0636 78° East 449 517 37,000  Level Minneapolis Center
04:08PM 41.7744 -92.9033 78° East 445 512 37,000  Level Minneapolis Center
04:09PM 41.7997 -92.7158 80° East 447 514 37,000  Level Minneapolis Center
04:10PM 41.8233 -92.5542 79° East 448 516 37,000  Level Minneapolis Center
04:11PM 41.8497 -92.3936 78° East 447 514 37,000  Level Minneapolis Center
04:12PM 41.8750 -92.2314 78° East 449 517 37,000  Level Minneapolis Center
04:14PM 41.9061 -92.0367 78° East 450 518 37,000  Level Minneapolis Center
04:15PM 41.9278 -91.8717 80° East 452 520 37,000  Level Minneapolis Center
04:16PM 41.9514 -91.7075 79° East 454 522 37,000  Level Minneapolis Center
04:17PM 41.9750 -91.5414 79° East 456 525 37,000  Level Minneapolis Center
04:18PM 41.9964 -91.3742 80° East 459 528 37,000  Level Minneapolis Center
04:19PM 42.0297 -91.1408 79° East 460 529 37,000  Level Chicago Center
04:20PM 42.0500 -90.9728 81° East 460 529 37,100 240 Climbing Chicago Center
04:21PM 42.0783 -90.7756 79° East 455 524 37,600 360 Climbing Chicago Center
04:22PM 42.1042 -90.6131 78° East 452 520 37,900 240 Climbing Chicago Center
04:23PM 42.1269 -90.4464 80° East 457 526 38,200 240 Climbing Chicago Center
04:24PM 42.1456 -90.2819 81° East 453 521 38,500 240 Climbing Chicago Center
04:25PM 42.1675 -90.1178 80° East 452 520 38,700 240 Climbing Chicago Center
04:26PM 42.1914 -89.9181 81° East 456 525 39,000 120 Climbing Chicago Center
04:27PM 42.2108 -89.7483 81° East 455 524 39,000  Level Chicago Center
04:28PM 42.2278 -89.5792 82° East 456 525 39,000  Level Chicago Center
04:29PM 42.2436 -89.4089 83° East 457 526 39,000  Level Chicago Center
04:30PM 42.2625 -89.2394 81° East 460 529 39,000  Level Chicago Center
04:31PM 42.2864 -89.0411 81° East 459 528 39,000  Level Chicago Center
04:32PM 42.3061 -88.8708 81° East 461 531 39,000  Level Chicago Center
04:33PM 42.3236 -88.7175 81° East 461 531 39,000  Level Chicago Center
04:34PM 42.3406 -88.5278 83° East 461 531 39,000  Level Chicago Center
04:35PM 42.3472 -88.3542 87° East 463 533 39,000  Level Chicago Center
04:37PM 42.3544 -88.1531 87° East 461 531 39,000  Level Chicago Center
04:38PM 42.3697 -87.9806 83° East 462 532 39,000  Level Chicago Center
04:39PM 42.3858 -87.8075 83° East 464 534 39,000  Level Chicago Center
04:40PM 42.4083 -87.6128 81° East 463 533 39,000  Level Chicago Center
04:41PM 42.4175 -87.4381 86° East 466 536 39,000  Level Chicago Center
04:42PM 42.4292 -87.2647 85° East 465 535 39,000  Level Chicago Center
04:43PM 42.4511 -87.0944 80° East 463 533 39,000  Level Chicago Center
04:44PM 42.4656 -86.9225 83° East 463 533 39,000  Level Chicago Center
04:45PM 42.4811 -86.7492 83° East 464 534 39,000  Level Chicago Center
04:46PM 42.5036 -86.5494 81° East 470 541 39,000  Level Chicago Center
04:47PM 42.5186 -86.3764 83° East 467 537 39,000  Level Chicago Center
04:48PM 42.5328 -86.2025 84° East 467 537 39,000  Level Chicago Center
04:49PM 42.5478 -86.0278 83° East 471 542 39,000  Level Chicago Center
04:50PM 42.5661 -85.8175 83° East 472 543 39,000  Level Chicago Center
04:51PM 42.5814 -85.6428 83° East 472 543 39,000  Level Chicago Center
04:52PM 42.5922 -85.4656 85° East 474 545 39,000  Level Chicago Center
04:53PM 42.6042 -85.2881 85° East 475 547 39,000  Level Chicago Center
04:54PM 42.6164 -85.1131 85° East 472 543 39,000  Level Chicago Center
04:55PM 42.6339 -84.8997 84° East 475 547 39,000  Level Chicago Center
04:56PM 42.6242 -84.7228 94° East 471 542 39,000  Level Chicago Center
04:57PM 42.6178 -84.5436 93° East 475 547 39,000  Level Chicago Center
04:58PM 42.6225 -84.3642 88° East 477 549 39,000  Level Chicago Center
04:59PM 42.6264 -84.2039 88° East 479 551 39,000 -300 Level Cleveland Center
05:00PM 42.6233 -84.0258 91° East 474 545 38,500 -1,080 Descending Cleveland Center
05:01PM 42.6225 -83.8425 90° East 474 545 36,900 -1,680 Descending Cleveland Center
05:02PM 42.6203 -83.6928 91° East 479 551 35,200 -1,740 Descending Cleveland Center
05:03PM 42.6172 -83.4922 91° East 479 551 33,500 -1,140 Descending Cleveland Center
05:04PM 42.6136 -83.3058 91° East 484 557 33,000 -300 Descending Cleveland Center
05:05PM 42.6156 -83.1225 89° East 484 557 33,000  Level Cleveland Center
05:06PM 42.6153 -82.9361 90° East 484 557 33,000  Level Cleveland Center
05:07PM 42.6086 -82.7525 93° East 484 557 33,000  Level Cleveland Center
05:08PM 42.6056 -82.5664 91° East 484 557 33,000 -360 Level Cleveland Center
05:09PM 42.6025 -82.3856 91° East 484 557 32,300 -1,080 Descending Cleveland Center
05:10PM 42.5947 -82.2050 93° East 484 557 30,900 -1,560 Descending Cleveland Center
05:11PM 42.5889 -82.0158 92° East 479 551 29,200 -1,740 Descending Cleveland Center
05:12PM 42.5847 -81.8267 92° East 485 558 27,500 -1,680 Descending Cleveland Center
05:13PM 42.5844 -81.6406 90° East 497 572 25,900 -1,260 Descending Cleveland Center
05:14PM 42.5778 -81.4375 92° East 497 572 25,000 -480 Descending Cleveland Center
05:15PM 42.5667 -81.2569 95° East 497 572 25,000  Level Cleveland Center
05:16PM 42.5614 -81.0736 92° East 491 565 25,000  Level Cleveland Center
05:17PM 42.5597 -80.8906 91° East 486 559 25,000  Level Cleveland Center
05:18PM 42.5519 -80.7072 93° East 486 559 25,000  Level Cleveland Center
05:19PM 42.5519 -80.5297 90° East 481 554 25,000  Level Cleveland Center
05:20PM 42.5892 -80.3519 74° East 468 539 25,000 -360 Level Cleveland Center
05:21PM 42.6303 -80.1769 72° East 478 550 24,300 -900 Descending Cleveland Center
05:22PM 42.6589 -80.0158 76° East 483 556 23,200 -1,380 Descending Cleveland Center
05:23PM 42.7078 -79.8175 71° East 495 570 21,600 -1,560 Descending Cleveland Center
05:24PM 42.7439 -79.6447 74° East 488 562 20,100 -1,740 Descending Cleveland Center
05:25PM 42.7717 -79.4744 77° East 475 547 18,200 -2,160 Descending Cleveland Center
05:26PM 42.7992 -79.3156 77° East 450 518 15,800 -2,460 Descending Cleveland Center
05:27PM 42.8308 -79.1733 73° East 417 480 13,300 -3,000 Descending Cleveland Center
05:28PM 42.8647 -79.0450 70° East 378 435 9,800 -3,000 Descending Cleveland Center
05:29PM 42.9136 -78.9589 52° Northeast 318 366 7,400 -2,460 Descending Cleveland Center
05:30PM 42.9392 -78.8617 70° East 279 321 4,900 -2,460 Descending Cleveland Center
05:31PM 42.9547 -78.7792 76° East 262 302 2,500 -1,440 Descending Cleveland Center
05:32PM 42.9614 -78.6794 85° East 241 277 2,100 4,200 Descending Cleveland Center
05:33PM 42.9703 -78.5858 83° East 241 277 11,000 8,880 Climbing Cleveland Center
05:35PM 42.9333 -78.7167 251° West  Level FlightAware Approximate
05:42PM 42.9404 -78.7306 251° West  Level Estimated